Aviation Digital Data Service (ADDS)

Output produced by METARs form (2047 UTC 20 August 2019)
found at http://www.aviationweather.gov/metar/data/
 
Forecast for: ZBHH (HUHHOT , CN)
Text: TAF ZBHH 201503Z 2018/2118 03004MPS CAVOK TX21/2107Z TN10/2022Z
Forecast period: 1800 UTC 20 August 2019 to 1800 UTC 21 August 2019
Forecast type: FROM: standard forecast or significant change
Winds: from the NNE (30 degrees) at 9 MPH (8 knots; 4.1 m/s)
Visibility: 6 or more miles 10+ km)
Ceiling: unknown
Clouds: missing
Weather: no significant weather forecast for this period